sensor_id;sensor_type;location;lat;lon;timestamp;temperature;humidity
14733;DHT22;7457;50.960;6.830;2023-01-05T00:00:52;11.20;85.80
14733;DHT22;7457;50.960;6.830;2023-01-05T00:03:19;11.20;85.80
14733;DHT22;7457;50.960;6.830;2023-01-05T00:05:44;11.20;86.00
14733;DHT22;7457;50.960;6.830;2023-01-05T00:08:10;11.10;85.90
14733;DHT22;7457;50.960;6.830;2023-01-05T00:10:36;11.10;86.00
14733;DHT22;7457;50.960;6.830;2023-01-05T00:13:21;11.10;86.00
14733;DHT22;7457;50.960;6.830;2023-01-05T00:16:11;11.10;86.00
14733;DHT22;7457;50.960;6.830;2023-01-05T00:18:55;11.10;86.10
14733;DHT22;7457;50.960;6.830;2023-01-05T00:21:40;11.10;86.10
14733;DHT22;7457;50.960;6.830;2023-01-05T00:24:23;11.10;86.10
14733;DHT22;7457;50.960;6.830;2023-01-05T00:26:49;11.10;86.10
14733;DHT22;7457;50.960;6.830;2023-01-05T00:29:15;11.10;86.20
14733;DHT22;7457;50.960;6.830;2023-01-05T00:31:40;11.10;86.20
14733;DHT22;7457;50.960;6.830;2023-01-05T00:34:06;11.10;86.20
14733;DHT22;7457;50.960;6.830;2023-01-05T00:36:31;11.10;86.30
14733;DHT22;7457;50.960;6.830;2023-01-05T00:38:57;11.10;86.20
14733;DHT22;7457;50.960;6.830;2023-01-05T00:41:22;11.10;86.20
14733;DHT22;7457;50.960;6.830;2023-01-05T00:43:48;11.10;86.20
14733;DHT22;7457;50.960;6.830;2023-01-05T00:46:13;11.10;86.20
14733;DHT22;7457;50.960;6.830;2023-01-05T00:48:39;11.00;86.20
14733;DHT22;7457;50.960;6.830;2023-01-05T00:51:05;11.00;86.30
14733;DHT22;7457;50.960;6.830;2023-01-05T00:53:30;11.00;86.20
14733;DHT22;7457;50.960;6.830;2023-01-05T00:55:56;11.00;86.20
14733;DHT22;7457;50.960;6.830;2023-01-05T00:58:22;11.00;86.20
14733;DHT22;7457;50.960;6.830;2023-01-05T01:00:48;11.00;86.20
14733;DHT22;7457;50.960;6.830;2023-01-05T01:03:14;11.00;86.20
14733;DHT22;7457;50.960;6.830;2023-01-05T01:05:40;11.00;86.30
14733;DHT22;7457;50.960;6.830;2023-01-05T01:08:06;11.00;86.30
14733;DHT22;7457;50.960;6.830;2023-01-05T01:10:31;10.90;86.30
14733;DHT22;7457;50.960;6.830;2023-01-05T01:12:57;10.90;86.20
14733;DHT22;7457;50.960;6.830;2023-01-05T01:15:22;10.90;86.20
14733;DHT22;7457;50.960;6.830;2023-01-05T01:17:48;10.90;86.10
14733;DHT22;7457;50.960;6.830;2023-01-05T01:20:13;10.90;86.10
14733;DHT22;7457;50.960;6.830;2023-01-05T01:22:39;11.00;86.10
14733;DHT22;7457;50.960;6.830;2023-01-05T01:25:05;10.90;86.10
14733;DHT22;7457;50.960;6.830;2023-01-05T01:27:31;11.00;86.10
14733;DHT22;7457;50.960;6.830;2023-01-05T01:29:57;10.90;86.20
14733;DHT22;7457;50.960;6.830;2023-01-05T01:32:22;10.90;86.20
14733;DHT22;7457;50.960;6.830;2023-01-05T01:34:51;10.90;86.30
14733;DHT22;7457;50.960;6.830;2023-01-05T01:37:17;10.90;86.40
14733;DHT22;7457;50.960;6.830;2023-01-05T01:39:42;10.90;86.50
14733;DHT22;7457;50.960;6.830;2023-01-05T01:42:13;10.90;86.50
14733;DHT22;7457;50.960;6.830;2023-01-05T01:47:17;10.90;86.60
14733;DHT22;7457;50.960;6.830;2023-01-05T01:49:45;10.90;86.80
14733;DHT22;7457;50.960;6.830;2023-01-05T01:52:11;10.90;86.80
14733;DHT22;7457;50.960;6.830;2023-01-05T01:54:36;10.90;86.90
14733;DHT22;7457;50.960;6.830;2023-01-05T01:57:03;10.90;86.90
14733;DHT22;7457;50.960;6.830;2023-01-05T01:59:29;10.90;86.90
14733;DHT22;7457;50.960;6.830;2023-01-05T02:01:58;10.90;86.90
14733;DHT22;7457;50.960;6.830;2023-01-05T02:04:25;10.90;87.00
14733;DHT22;7457;50.960;6.830;2023-01-05T02:06:52;10.90;87.10
14733;DHT22;7457;50.960;6.830;2023-01-05T02:09:18;10.90;87.10
14733;DHT22;7457;50.960;6.830;2023-01-05T02:18:01;10.80;87.20
14733;DHT22;7457;50.960;6.830;2023-01-05T02:27:05;10.80;87.40
14733;DHT22;7457;50.960;6.830;2023-01-05T02:32:28;10.80;87.30
14733;DHT22;7457;50.960;6.830;2023-01-05T02:37:46;10.70;87.40
14733;DHT22;7457;50.960;6.830;2023-01-05T02:40:17;10.70;87.50
14733;DHT22;7457;50.960;6.830;2023-01-05T02:42:47;10.60;87.60
14733;DHT22;7457;50.960;6.830;2023-01-05T02:45:15;10.60;87.60
14733;DHT22;7457;50.960;6.830;2023-01-05T02:47:44;10.50;87.80
14733;DHT22;7457;50.960;6.830;2023-01-05T02:50:18;10.40;87.80
14733;DHT22;7457;50.960;6.830;2023-01-05T02:55:13;10.40;88.30
14733;DHT22;7457;50.960;6.830;2023-01-05T02:57:51;10.30;88.50
14733;DHT22;7457;50.960;6.830;2023-01-05T03:00:40;10.30;88.70
14733;DHT22;7457;50.960;6.830;2023-01-05T03:03:23;10.40;88.70
14733;DHT22;7457;50.960;6.830;2023-01-05T03:06:46;10.40;88.70
14733;DHT22;7457;50.960;6.830;2023-01-05T03:09:13;10.40;88.60
14733;DHT22;7457;50.960;6.830;2023-01-05T03:11:44;10.40;88.50
14733;DHT22;7457;50.960;6.830;2023-01-05T03:14:57;10.40;88.60
14733;DHT22;7457;50.960;6.830;2023-01-05T03:17:26;10.40;88.60
14733;DHT22;7457;50.960;6.830;2023-01-05T03:19:54;10.40;88.60
14733;DHT22;7457;50.960;6.830;2023-01-05T03:22:34;10.40;88.70
14733;DHT22;7457;50.960;6.830;2023-01-05T03:25:21;10.40;88.60
14733;DHT22;7457;50.960;6.830;2023-01-05T03:28:12;10.40;88.60
14733;DHT22;7457;50.960;6.830;2023-01-05T03:31:12;10.40;88.60
14733;DHT22;7457;50.960;6.830;2023-01-05T03:37:09;10.40;88.60
14733;DHT22;7457;50.960;6.830;2023-01-05T03:39:39;10.40;88.40
14733;DHT22;7457;50.960;6.830;2023-01-05T03:42:08;10.40;88.40
14733;DHT22;7457;50.960;6.830;2023-01-05T03:44:37;10.50;88.30
14733;DHT22;7457;50.960;6.830;2023-01-05T03:47:04;10.50;88.10
14733;DHT22;7457;50.960;6.830;2023-01-05T03:49:29;10.50;88.00
14733;DHT22;7457;50.960;6.830;2023-01-05T03:51:55;10.50;88.00
14733;DHT22;7457;50.960;6.830;2023-01-05T03:54:21;10.40;88.10
14733;DHT22;7457;50.960;6.830;2023-01-05T03:56:46;10.40;88.10
14733;DHT22;7457;50.960;6.830;2023-01-05T03:59:12;10.40;88.10
14733;DHT22;7457;50.960;6.830;2023-01-05T04:01:38;10.40;88.10
14733;DHT22;7457;50.960;6.830;2023-01-05T04:04:04;10.50;88.10
14733;DHT22;7457;50.960;6.830;2023-01-05T04:06:29;10.50;88.00
14733;DHT22;7457;50.960;6.830;2023-01-05T04:08:55;10.50;88.00
14733;DHT22;7457;50.960;6.830;2023-01-05T04:11:22;10.50;87.90
14733;DHT22;7457;50.960;6.830;2023-01-05T04:13:48;10.50;87.80
14733;DHT22;7457;50.960;6.830;2023-01-05T04:16:14;10.60;87.80
14733;DHT22;7457;50.960;6.830;2023-01-05T04:18:40;10.60;87.70
14733;DHT22;7457;50.960;6.830;2023-01-05T04:21:05;10.60;87.60
14733;DHT22;7457;50.960;6.830;2023-01-05T04:23:31;10.60;87.60
14733;DHT22;7457;50.960;6.830;2023-01-05T04:25:58;10.60;87.50
14733;DHT22;7457;50.960;6.830;2023-01-05T04:28:24;10.60;87.30
14733;DHT22;7457;50.960;6.830;2023-01-05T04:30:51;10.60;87.30
14733;DHT22;7457;50.960;6.830;2023-01-05T04:33:17;10.60;87.20
14733;DHT22;7457;50.960;6.830;2023-01-05T04:35:43;10.60;87.20
14733;DHT22;7457;50.960;6.830;2023-01-05T04:38:08;10.60;87.20
14733;DHT22;7457;50.960;6.830;2023-01-05T04:40:34;10.60;87.20
14733;DHT22;7457;50.960;6.830;2023-01-05T04:42:59;10.60;87.20
14733;DHT22;7457;50.960;6.830;2023-01-05T04:45:25;10.60;87.20
14733;DHT22;7457;50.960;6.830;2023-01-05T04:47:51;10.60;87.20
14733;DHT22;7457;50.960;6.830;2023-01-05T04:50:17;10.60;87.20
14733;DHT22;7457;50.960;6.830;2023-01-05T04:52:43;10.60;87.20
14733;DHT22;7457;50.960;6.830;2023-01-05T04:55:09;10.60;87.30
14733;DHT22;7457;50.960;6.830;2023-01-05T04:57:35;10.60;87.50
14733;DHT22;7457;50.960;6.830;2023-01-05T05:00:02;10.50;87.70
14733;DHT22;7457;50.960;6.830;2023-01-05T05:02:28;10.50;88.50
14733;DHT22;7457;50.960;6.830;2023-01-05T05:04:54;10.40;88.60
14733;DHT22;7457;50.960;6.830;2023-01-05T05:07:19;10.30;89.20
14733;DHT22;7457;50.960;6.830;2023-01-05T05:09:45;10.20;89.50
14733;DHT22;7457;50.960;6.830;2023-01-05T05:12:11;10.10;89.80
14733;DHT22;7457;50.960;6.830;2023-01-05T05:14:37;10.10;90.60
14733;DHT22;7457;50.960;6.830;2023-01-05T05:17:04;10.00;91.00
14733;DHT22;7457;50.960;6.830;2023-01-05T05:19:30;9.90;91.00
14733;DHT22;7457;50.960;6.830;2023-01-05T05:21:55;9.90;91.40
14733;DHT22;7457;50.960;6.830;2023-01-05T05:24:21;9.90;91.80
14733;DHT22;7457;50.960;6.830;2023-01-05T05:26:47;9.90;92.00
14733;DHT22;7457;50.960;6.830;2023-01-05T05:29:12;9.80;92.30
14733;DHT22;7457;50.960;6.830;2023-01-05T05:31:38;9.90;92.30
14733;DHT22;7457;50.960;6.830;2023-01-05T05:34:04;9.90;92.30
14733;DHT22;7457;50.960;6.830;2023-01-05T05:36:29;9.90;92.30
14733;DHT22;7457;50.960;6.830;2023-01-05T05:38:55;9.90;92.30
14733;DHT22;7457;50.960;6.830;2023-01-05T05:41:22;9.90;92.30
14733;DHT22;7457;50.960;6.830;2023-01-05T05:43:48;9.90;92.20
14733;DHT22;7457;50.960;6.830;2023-01-05T05:46:13;9.90;92.30
14733;DHT22;7457;50.960;6.830;2023-01-05T05:48:39;9.90;92.50
14733;DHT22;7457;50.960;6.830;2023-01-05T05:51:04;9.90;92.40
14733;DHT22;7457;50.960;6.830;2023-01-05T05:53:30;10.00;92.30
14733;DHT22;7457;50.960;6.830;2023-01-05T05:55:55;10.00;92.30
14733;DHT22;7457;50.960;6.830;2023-01-05T05:58:21;10.00;92.40
14733;DHT22;7457;50.960;6.830;2023-01-05T06:00:47;10.00;92.40
14733;DHT22;7457;50.960;6.830;2023-01-05T06:03:12;10.00;92.30
14733;DHT22;7457;50.960;6.830;2023-01-05T06:05:38;10.10;92.20
14733;DHT22;7457;50.960;6.830;2023-01-05T06:08:04;10.00;92.10
14733;DHT22;7457;50.960;6.830;2023-01-05T06:10:29;10.00;92.10
14733;DHT22;7457;50.960;6.830;2023-01-05T06:12:55;10.00;92.10
14733;DHT22;7457;50.960;6.830;2023-01-05T06:15:21;10.00;92.00
14733;DHT22;7457;50.960;6.830;2023-01-05T06:17:47;10.10;92.00
14733;DHT22;7457;50.960;6.830;2023-01-05T06:20:14;10.00;92.00
14733;DHT22;7457;50.960;6.830;2023-01-05T06:22:41;10.10;92.10
14733;DHT22;7457;50.960;6.830;2023-01-05T06:25:07;10.10;92.00
14733;DHT22;7457;50.960;6.830;2023-01-05T06:27:33;10.10;92.00
14733;DHT22;7457;50.960;6.830;2023-01-05T06:29:59;10.10;92.00
14733;DHT22;7457;50.960;6.830;2023-01-05T06:32:24;10.10;91.90
14733;DHT22;7457;50.960;6.830;2023-01-05T06:34:50;10.20;91.80
14733;DHT22;7457;50.960;6.830;2023-01-05T06:37:15;10.20;91.70
14733;DHT22;7457;50.960;6.830;2023-01-05T06:39:41;10.20;91.70
14733;DHT22;7457;50.960;6.830;2023-01-05T06:42:06;10.20;91.60
14733;DHT22;7457;50.960;6.830;2023-01-05T06:44:32;10.10;91.70
14733;DHT22;7457;50.960;6.830;2023-01-05T06:46:58;10.10;91.70
14733;DHT22;7457;50.960;6.830;2023-01-05T06:49:23;10.10;91.80
14733;DHT22;7457;50.960;6.830;2023-01-05T06:51:49;10.20;91.70
14733;DHT22;7457;50.960;6.830;2023-01-05T06:54:14;10.20;91.60
14733;DHT22;7457;50.960;6.830;2023-01-05T06:56:40;10.20;91.50
14733;DHT22;7457;50.960;6.830;2023-01-05T06:59:06;10.20;91.50
14733;DHT22;7457;50.960;6.830;2023-01-05T07:01:31;10.20;91.50
14733;DHT22;7457;50.960;6.830;2023-01-05T07:03:57;10.20;91.50
14733;DHT22;7457;50.960;6.830;2023-01-05T07:06:22;10.20;91.40
14733;DHT22;7457;50.960;6.830;2023-01-05T07:08:48;10.20;91.30
14733;DHT22;7457;50.960;6.830;2023-01-05T07:11:13;10.20;91.20
14733;DHT22;7457;50.960;6.830;2023-01-05T07:13:39;10.30;91.20
14733;DHT22;7457;50.960;6.830;2023-01-05T07:16:05;10.30;91.10
14733;DHT22;7457;50.960;6.830;2023-01-05T07:18:31;10.30;91.10
14733;DHT22;7457;50.960;6.830;2023-01-05T07:20:59;10.30;91.00
14733;DHT22;7457;50.960;6.830;2023-01-05T07:23:25;10.30;90.90
14733;DHT22;7457;50.960;6.830;2023-01-05T07:25:50;10.30;90.80
14733;DHT22;7457;50.960;6.830;2023-01-05T07:28:16;10.30;90.80
14733;DHT22;7457;50.960;6.830;2023-01-05T07:30:41;10.30;90.80
14733;DHT22;7457;50.960;6.830;2023-01-05T07:33:07;10.30;90.80
14733;DHT22;7457;50.960;6.830;2023-01-05T07:35:33;10.30;90.70
14733;DHT22;7457;50.960;6.830;2023-01-05T07:37:58;10.40;90.70
14733;DHT22;7457;50.960;6.830;2023-01-05T07:40:24;10.30;90.70
14733;DHT22;7457;50.960;6.830;2023-01-05T07:42:51;10.30;90.80
14733;DHT22;7457;50.960;6.830;2023-01-05T07:45:17;10.30;91.00
14733;DHT22;7457;50.960;6.830;2023-01-05T07:47:43;10.30;91.30
14733;DHT22;7457;50.960;6.830;2023-01-05T07:50:09;10.20;91.40
14733;DHT22;7457;50.960;6.830;2023-01-05T07:52:34;10.20;91.80
14733;DHT22;7457;50.960;6.830;2023-01-05T07:55:00;10.10;92.00
14733;DHT22;7457;50.960;6.830;2023-01-05T07:57:25;10.10;92.10
14733;DHT22;7457;50.960;6.830;2023-01-05T07:59:51;10.10;92.30
14733;DHT22;7457;50.960;6.830;2023-01-05T08:02:17;10.10;92.40
14733;DHT22;7457;50.960;6.830;2023-01-05T08:04:42;10.10;92.60
14733;DHT22;7457;50.960;6.830;2023-01-05T08:07:08;10.10;92.40
14733;DHT22;7457;50.960;6.830;2023-01-05T08:09:36;10.10;92.40
14733;DHT22;7457;50.960;6.830;2023-01-05T08:12:20;10.20;92.40
14733;DHT22;7457;50.960;6.830;2023-01-05T08:14:45;10.20;92.50
14733;DHT22;7457;50.960;6.830;2023-01-05T08:17:11;10.20;92.10
14733;DHT22;7457;50.960;6.830;2023-01-05T08:19:37;10.20;92.20
14733;DHT22;7457;50.960;6.830;2023-01-05T08:22:02;10.20;92.10
14733;DHT22;7457;50.960;6.830;2023-01-05T08:24:28;10.30;92.10
14733;DHT22;7457;50.960;6.830;2023-01-05T08:26:54;10.30;92.20
14733;DHT22;7457;50.960;6.830;2023-01-05T08:29:19;10.30;92.40
14733;DHT22;7457;50.960;6.830;2023-01-05T08:31:45;10.30;92.30
14733;DHT22;7457;50.960;6.830;2023-01-05T08:34:11;10.30;92.20
14733;DHT22;7457;50.960;6.830;2023-01-05T08:36:37;10.40;92.50
14733;DHT22;7457;50.960;6.830;2023-01-05T08:39:03;10.40;92.50
14733;DHT22;7457;50.960;6.830;2023-01-05T08:41:36;10.40;92.40
14733;DHT22;7457;50.960;6.830;2023-01-05T08:46:32;10.50;91.90
14733;DHT22;7457;50.960;6.830;2023-01-05T08:48:59;10.50;91.90
14733;DHT22;7457;50.960;6.830;2023-01-05T08:51:25;10.50;91.80
14733;DHT22;7457;50.960;6.830;2023-01-05T08:53:52;10.50;91.90
14733;DHT22;7457;50.960;6.830;2023-01-05T08:56:19;10.50;91.70
14733;DHT22;7457;50.960;6.830;2023-01-05T08:58:44;10.50;91.60
14733;DHT22;7457;50.960;6.830;2023-01-05T09:01:15;10.60;91.90
14733;DHT22;7457;50.960;6.830;2023-01-05T09:03:40;10.60;92.10
14733;DHT22;7457;50.960;6.830;2023-01-05T09:06:08;10.60;91.60
14733;DHT22;7457;50.960;6.830;2023-01-05T09:08:36;10.60;91.20
14733;DHT22;7457;50.960;6.830;2023-01-05T09:13:36;10.60;91.10
14733;DHT22;7457;50.960;6.830;2023-01-05T09:16:06;10.60;91.70
14733;DHT22;7457;50.960;6.830;2023-01-05T09:18:33;10.70;92.40
14733;DHT22;7457;50.960;6.830;2023-01-05T09:20:59;10.70;92.20
14733;DHT22;7457;50.960;6.830;2023-01-05T09:23:25;10.80;91.50
14733;DHT22;7457;50.960;6.830;2023-01-05T09:25:51;10.90;91.40
14733;DHT22;7457;50.960;6.830;2023-01-05T09:28:16;10.90;91.50
14733;DHT22;7457;50.960;6.830;2023-01-05T09:30:42;11.00;91.20
14733;DHT22;7457;50.960;6.830;2023-01-05T09:33:08;11.00;90.70
14733;DHT22;7457;50.960;6.830;2023-01-05T09:35:33;11.10;90.50
14733;DHT22;7457;50.960;6.830;2023-01-05T09:37:59;11.10;90.20
14733;DHT22;7457;50.960;6.830;2023-01-05T09:40:25;11.10;90.40
14733;DHT22;7457;50.960;6.830;2023-01-05T09:42:52;11.10;90.50
14733;DHT22;7457;50.960;6.830;2023-01-05T09:45:24;11.10;89.90
14733;DHT22;7457;50.960;6.830;2023-01-05T09:47:52;11.10;89.90
14733;DHT22;7457;50.960;6.830;2023-01-05T09:50:22;11.10;90.20
14733;DHT22;7457;50.960;6.830;2023-01-05T09:52:51;11.20;90.30
14733;DHT22;7457;50.960;6.830;2023-01-05T09:55:20;11.20;90.60
14733;DHT22;7457;50.960;6.830;2023-01-05T09:58:05;11.30;90.20
14733;DHT22;7457;50.960;6.830;2023-01-05T10:00:32;11.30;90.10
14733;DHT22;7457;50.960;6.830;2023-01-05T10:03:08;11.40;89.90
14733;DHT22;7457;50.960;6.830;2023-01-05T10:05:38;11.40;89.90
14733;DHT22;7457;50.960;6.830;2023-01-05T10:08:18;11.50;89.20
14733;DHT22;7457;50.960;6.830;2023-01-05T10:10:49;11.40;88.40
14733;DHT22;7457;50.960;6.830;2023-01-05T10:13:41;11.40;88.70
14733;DHT22;7457;50.960;6.830;2023-01-05T10:16:15;11.40;88.70
14733;DHT22;7457;50.960;6.830;2023-01-05T10:18:40;11.40;88.70
14733;DHT22;7457;50.960;6.830;2023-01-05T10:24:13;11.40;88.50
14733;DHT22;7457;50.960;6.830;2023-01-05T10:27:04;11.40;89.00
14733;DHT22;7457;50.960;6.830;2023-01-05T10:29:46;11.50;89.00
14733;DHT22;7457;50.960;6.830;2023-01-05T10:43:13;11.60;87.70
14733;DHT22;7457;50.960;6.830;2023-01-05T10:45:44;11.60;87.20
14733;DHT22;7457;50.960;6.830;2023-01-05T10:48:15;11.60;87.30
14733;DHT22;7457;50.960;6.830;2023-01-05T10:50:44;11.60;87.40
14733;DHT22;7457;50.960;6.830;2023-01-05T10:53:14;11.60;87.50
14733;DHT22;7457;50.960;6.830;2023-01-05T10:56:02;11.70;87.40
14733;DHT22;7457;50.960;6.830;2023-01-05T10:58:33;11.70;87.40
14733;DHT22;7457;50.960;6.830;2023-01-05T11:01:01;11.80;87.70
14733;DHT22;7457;50.960;6.830;2023-01-05T11:03:40;11.80;87.50
14733;DHT22;7457;50.960;6.830;2023-01-05T11:06:08;11.90;87.30
14733;DHT22;7457;50.960;6.830;2023-01-05T11:08:43;11.90;86.90
14733;DHT22;7457;50.960;6.830;2023-01-05T11:11:09;12.00;86.90
14733;DHT22;7457;50.960;6.830;2023-01-05T11:13:45;12.10;87.10
14733;DHT22;7457;50.960;6.830;2023-01-05T11:16:18;12.10;86.30
14733;DHT22;7457;50.960;6.830;2023-01-05T11:21:21;12.20;85.80
14733;DHT22;7457;50.960;6.830;2023-01-05T11:23:50;12.20;85.10
14733;DHT22;7457;50.960;6.830;2023-01-05T11:34:43;12.00;85.20
14733;DHT22;7457;50.960;6.830;2023-01-05T11:37:21;12.00;85.50
14733;DHT22;7457;50.960;6.830;2023-01-05T11:39:51;12.00;85.30
14733;DHT22;7457;50.960;6.830;2023-01-05T11:44:52;12.00;84.70
14733;DHT22;7457;50.960;6.830;2023-01-05T11:47:31;12.00;85.20
14733;DHT22;7457;50.960;6.830;2023-01-05T11:57:50;12.60;85.10
14733;DHT22;7457;50.960;6.830;2023-01-05T12:11:36;13.60;83.80
14733;DHT22;7457;50.960;6.830;2023-01-05T12:16:55;14.20;83.50
14733;DHT22;7457;50.960;6.830;2023-01-05T12:30:53;15.30;77.10
14733;DHT22;7457;50.960;6.830;2023-01-05T12:39:05;15.40;75.40
14733;DHT22;7457;50.960;6.830;2023-01-05T12:50:38;14.10;75.90
14733;DHT22;7457;50.960;6.830;2023-01-05T13:01:27;13.10;75.50
14733;DHT22;7457;50.960;6.830;2023-01-05T13:04:01;12.90;76.30
14733;DHT22;7457;50.960;6.830;2023-01-05T13:06:32;12.70;77.10
14733;DHT22;7457;50.960;6.830;2023-01-05T13:09:05;12.60;77.80
14733;DHT22;7457;50.960;6.830;2023-01-05T13:11:46;12.40;78.10
14733;DHT22;7457;50.960;6.830;2023-01-05T13:14:19;12.40;78.50
14733;DHT22;7457;50.960;6.830;2023-01-05T13:16:53;12.40;79.20
14733;DHT22;7457;50.960;6.830;2023-01-05T13:19:30;12.30;79.30
14733;DHT22;7457;50.960;6.830;2023-01-05T13:22:02;12.30;79.10
14733;DHT22;7457;50.960;6.830;2023-01-05T13:24:51;12.30;79.20
14733;DHT22;7457;50.960;6.830;2023-01-05T13:27:19;12.30;79.30
14733;DHT22;7457;50.960;6.830;2023-01-05T13:29:49;12.30;79.40
14733;DHT22;7457;50.960;6.830;2023-01-05T13:32:27;12.30;79.40
14733;DHT22;7457;50.960;6.830;2023-01-05T13:49:16;12.00;79.10
14733;DHT22;7457;50.960;6.830;2023-01-05T13:57:22;11.60;80.60
14733;DHT22;7457;50.960;6.830;2023-01-05T13:59:55;11.60;81.20
14733;DHT22;7457;50.960;6.830;2023-01-05T14:02:33;11.50;81.70
14733;DHT22;7457;50.960;6.830;2023-01-05T14:05:02;11.50;82.10
14733;DHT22;7457;50.960;6.830;2023-01-05T14:07:29;11.40;82.50
14733;DHT22;7457;50.960;6.830;2023-01-05T14:09:56;11.40;82.70
14733;DHT22;7457;50.960;6.830;2023-01-05T14:20:43;11.40;83.50
14733;DHT22;7457;50.960;6.830;2023-01-05T14:26:01;11.40;83.90
14733;DHT22;7457;50.960;6.830;2023-01-05T14:33:33;11.40;84.20
14733;DHT22;7457;50.960;6.830;2023-01-05T14:36:30;11.40;84.20
14733;DHT22;7457;50.960;6.830;2023-01-05T14:38:57;11.40;84.40
14733;DHT22;7457;50.960;6.830;2023-01-05T14:41:24;11.30;84.40
14733;DHT22;7457;50.960;6.830;2023-01-05T14:44:04;11.30;84.40
14733;DHT22;7457;50.960;6.830;2023-01-05T14:46:52;11.30;84.30
14733;DHT22;7457;50.960;6.830;2023-01-05T14:52:02;11.20;84.50
14733;DHT22;7457;50.960;6.830;2023-01-05T14:59:59;11.10;84.30
14733;DHT22;7457;50.960;6.830;2023-01-05T15:02:30;11.10;84.40
14733;DHT22;7457;50.960;6.830;2023-01-05T15:05:02;11.10;84.30
14733;DHT22;7457;50.960;6.830;2023-01-05T15:10:16;11.00;84.50
14733;DHT22;7457;50.960;6.830;2023-01-05T15:32:43;10.90;85.10
14733;DHT22;7457;50.960;6.830;2023-01-05T15:35:18;10.80;85.10
14733;DHT22;7457;50.960;6.830;2023-01-05T15:37:45;10.80;85.20
14733;DHT22;7457;50.960;6.830;2023-01-05T15:42:49;10.80;85.20
14733;DHT22;7457;50.960;6.830;2023-01-05T15:45:20;10.80;85.20
14733;DHT22;7457;50.960;6.830;2023-01-05T15:47:47;10.70;85.30
14733;DHT22;7457;50.960;6.830;2023-01-05T15:50:23;10.70;85.40
14733;DHT22;7457;50.960;6.830;2023-01-05T15:55:18;10.70;85.60
14733;DHT22;7457;50.960;6.830;2023-01-05T15:58:13;10.70;85.70
14733;DHT22;7457;50.960;6.830;2023-01-05T16:00:39;10.70;85.80
14733;DHT22;7457;50.960;6.830;2023-01-05T16:03:28;10.70;86.00
14733;DHT22;7457;50.960;6.830;2023-01-05T16:05:59;10.70;86.10
14733;DHT22;7457;50.960;6.830;2023-01-05T16:08:25;10.60;86.40
14733;DHT22;7457;50.960;6.830;2023-01-05T16:10:53;10.60;86.70
14733;DHT22;7457;50.960;6.830;2023-01-05T16:13:39;10.50;86.90
14733;DHT22;7457;50.960;6.830;2023-01-05T16:16:21;10.50;87.30
14733;DHT22;7457;50.960;6.830;2023-01-05T16:18:53;10.40;87.50
14733;DHT22;7457;50.960;6.830;2023-01-05T16:21:39;10.40;88.00
14733;DHT22;7457;50.960;6.830;2023-01-05T16:24:20;10.30;88.30
14733;DHT22;7457;50.960;6.830;2023-01-05T16:26:47;10.20;88.70
14733;DHT22;7457;50.960;6.830;2023-01-05T16:29:40;10.10;88.90
14733;DHT22;7457;50.960;6.830;2023-01-05T16:32:35;10.10;89.20
14733;DHT22;7457;50.960;6.830;2023-01-05T16:37:44;10.00;89.90
14733;DHT22;7457;50.960;6.830;2023-01-05T16:40:20;9.90;90.40
14733;DHT22;7457;50.960;6.830;2023-01-05T16:42:48;9.90;90.80
14733;DHT22;7457;50.960;6.830;2023-01-05T16:45:22;9.80;90.80
14733;DHT22;7457;50.960;6.830;2023-01-05T16:47:49;9.80;91.20
14733;DHT22;7457;50.960;6.830;2023-01-05T16:57:56;9.70;92.10
14733;DHT22;7457;50.960;6.830;2023-01-05T17:02:57;9.70;92.20
14733;DHT22;7457;50.960;6.830;2023-01-05T17:05:41;9.60;92.30
14733;DHT22;7457;50.960;6.830;2023-01-05T17:08:17;9.60;92.50
14733;DHT22;7457;50.960;6.830;2023-01-05T17:10:44;9.60;92.70
14733;DHT22;7457;50.960;6.830;2023-01-05T17:13:13;9.60;92.90
14733;DHT22;7457;50.960;6.830;2023-01-05T17:15:42;9.60;93.20
14733;DHT22;7457;50.960;6.830;2023-01-05T17:20:40;9.60;93.80
14733;DHT22;7457;50.960;6.830;2023-01-05T17:23:13;9.70;94.00
14733;DHT22;7457;50.960;6.830;2023-01-05T17:25:39;9.70;94.20
14733;DHT22;7457;50.960;6.830;2023-01-05T17:28:04;9.70;94.30
14733;DHT22;7457;50.960;6.830;2023-01-05T17:30:30;9.70;94.50
14733;DHT22;7457;50.960;6.830;2023-01-05T17:32:56;9.70;94.80
14733;DHT22;7457;50.960;6.830;2023-01-05T17:35:21;9.70;94.80
14733;DHT22;7457;50.960;6.830;2023-01-05T17:37:47;9.70;94.90
14733;DHT22;7457;50.960;6.830;2023-01-05T17:40:18;9.70;94.80
14733;DHT22;7457;50.960;6.830;2023-01-05T17:42:44;9.70;94.90
14733;DHT22;7457;50.960;6.830;2023-01-05T17:45:18;9.70;94.90
14733;DHT22;7457;50.960;6.830;2023-01-05T17:47:45;9.70;95.30
14733;DHT22;7457;50.960;6.830;2023-01-05T17:50:17;9.70;95.30
14733;DHT22;7457;50.960;6.830;2023-01-05T17:52:43;9.70;95.30
14733;DHT22;7457;50.960;6.830;2023-01-05T17:55:09;9.70;95.40
14733;DHT22;7457;50.960;6.830;2023-01-05T17:57:36;9.70;95.80
14733;DHT22;7457;50.960;6.830;2023-01-05T18:00:04;9.70;95.70
14733;DHT22;7457;50.960;6.830;2023-01-05T18:02:30;9.70;95.70
14733;DHT22;7457;50.960;6.830;2023-01-05T18:04:56;9.70;95.60
14733;DHT22;7457;50.960;6.830;2023-01-05T18:07:21;9.80;95.70
14733;DHT22;7457;50.960;6.830;2023-01-05T18:09:47;9.70;95.70
14733;DHT22;7457;50.960;6.830;2023-01-05T18:12:13;9.80;95.80
14733;DHT22;7457;50.960;6.830;2023-01-05T18:14:38;9.70;96.00
14733;DHT22;7457;50.960;6.830;2023-01-05T18:17:04;9.70;96.30
14733;DHT22;7457;50.960;6.830;2023-01-05T18:19:29;9.70;96.10
14733;DHT22;7457;50.960;6.830;2023-01-05T18:21:55;9.70;96.10
14733;DHT22;7457;50.960;6.830;2023-01-05T18:24:21;9.70;96.10
14733;DHT22;7457;50.960;6.830;2023-01-05T18:26:48;9.70;96.20
14733;DHT22;7457;50.960;6.830;2023-01-05T18:29:14;9.70;96.60
14733;DHT22;7457;50.960;6.830;2023-01-05T18:31:40;9.70;97.00
14733;DHT22;7457;50.960;6.830;2023-01-05T18:34:05;9.70;97.30
14733;DHT22;7457;50.960;6.830;2023-01-05T18:36:31;9.70;97.40
14733;DHT22;7457;50.960;6.830;2023-01-05T18:38:56;9.70;97.60
14733;DHT22;7457;50.960;6.830;2023-01-05T18:41:23;9.70;97.70
14733;DHT22;7457;50.960;6.830;2023-01-05T18:43:49;9.70;97.70
14733;DHT22;7457;50.960;6.830;2023-01-05T18:46:14;9.70;97.80
14733;DHT22;7457;50.960;6.830;2023-01-05T18:48:40;9.70;97.90
14733;DHT22;7457;50.960;6.830;2023-01-05T18:51:07;9.70;98.00
14733;DHT22;7457;50.960;6.830;2023-01-05T18:53:34;9.70;97.90
14733;DHT22;7457;50.960;6.830;2023-01-05T18:56:05;9.70;97.90
14733;DHT22;7457;50.960;6.830;2023-01-05T18:58:31;9.70;97.80
14733;DHT22;7457;50.960;6.830;2023-01-05T19:00:56;9.70;97.80
14733;DHT22;7457;50.960;6.830;2023-01-05T19:03:22;9.70;97.90
14733;DHT22;7457;50.960;6.830;2023-01-05T19:05:47;9.70;98.20
14733;DHT22;7457;50.960;6.830;2023-01-05T19:08:13;9.70;98.30
14733;DHT22;7457;50.960;6.830;2023-01-05T19:10:39;9.60;98.30
14733;DHT22;7457;50.960;6.830;2023-01-05T19:13:05;9.60;98.40
14733;DHT22;7457;50.960;6.830;2023-01-05T19:15:32;9.60;98.50
14733;DHT22;7457;50.960;6.830;2023-01-05T19:17:58;9.60;98.60
14733;DHT22;7457;50.960;6.830;2023-01-05T19:20:23;9.60;98.70
14733;DHT22;7457;50.960;6.830;2023-01-05T19:22:49;9.70;98.70
14733;DHT22;7457;50.960;6.830;2023-01-05T19:25:16;9.70;98.70